Time;durP1;ratioP1;P1;durP2;ratioP2;P2;SDS_P1;SDS_P2;PMS_P1;PMS_P2;Temp;Humidity;BMP_temperature;BMP_pressure;BME280_temperature;BME280_humidity;BME280_pressure;Samples;Min_cycle;Max_cycle;Signal;HPM_P1;HPM_P2
2024/01/20 00:00:35;;;;;;;;;;;;;;;;;;5109543;28;20392;-70
2024/01/20 00:03:01;;;;;;;;;;;;;;;;;;5092101;28;19924;-70
2024/01/20 00:05:27;;;;;;;;;;;;;;;;;;5107574;28;19919;-70
2024/01/20 00:07:53;;;;;;;;;;;;;;;;;;5074756;28;19930;-70
2024/01/20 00:10:19;;;;;;;;;;;;;;;;;;5112159;28;19924;-70
2024/01/20 00:12:45;;;;;;;;;;;;;;;;;;5100718;28;19931;-70
2024/01/20 00:15:11;;;;;;;;;;;;;;;;;;5084360;28;19920;-69
2024/01/20 00:17:37;;;;;;;;;;;;;;;;;;5107221;28;20334;-69
2024/01/20 00:20:04;;;;;;;;;;;;;;;;;;5091523;28;20462;-69
2024/01/20 00:22:30;;;;;;;;;;;;;;;;;;5111796;28;19963;-69
2024/01/20 00:24:59;;;;;;;;;;;;;;;;;;5109430;28;20381;-69
2024/01/20 00:27:24;;;;;;;;;;;;;;;;;;5069121;28;20639;-69
2024/01/20 00:29:50;;;;;;;;;;;;;;;;;;5106931;27;19930;-70
2024/01/20 00:32:16;;;;;;;;;;;;;;;;;;5103506;28;19927;-69
2024/01/20 00:34:42;;;;;;;;;;;;;;;;;;5084217;28;19920;-70
2024/01/20 00:37:08;;;;;;;;;;;;;;;;;;5087982;28;20394;-70
2024/01/20 00:39:34;;;;;;;;;;;;;;;;;;5102913;27;19997;-71
2024/01/20 00:42:00;;;;;;;;;;;;;;;;;;5096302;28;19928;-69
2024/01/20 00:44:26;;;;;;;;;;;;;;;;;;5110370;28;19971;-70
2024/01/20 00:46:52;;;;;;;;;;;;;;;;;;5110150;28;19967;-70
2024/01/20 00:49:18;;;;;;;;;;;;;;;;;;5093834;28;21310;-70
2024/01/20 00:51:43;;;;;;;;;;;;;;;;;;5116614;28;19962;-70
2024/01/20 00:54:09;;;;;;;;;;;;;;;;;;5103516;28;20015;-70
2024/01/20 00:56:35;;;;;;;;;;;;;;;;;;5109587;28;20010;-70
2024/01/20 00:59:01;;;;;;;;;;;;;;;;;;5108496;28;20428;-70
2024/01/20 01:01:27;;;;;;;;;;;;;;;;;;5090497;28;19989;-70
2024/01/20 01:03:53;;;;;;;;;;;;;;;;;;5103918;28;20365;-70
2024/01/20 01:06:19;;;;;;;;;;;;;;;;;;5106099;28;19924;-70
2024/01/20 01:08:45;;;;;;;;;;;;;;;;;;5105843;28;19932;-70
2024/01/20 01:11:11;;;;;;;;;;;;;;;;;;5114170;27;19927;-69
2024/01/20 01:13:39;;;;;;;;;;;;;;;;;;5111414;28;19919;-70
2024/01/20 01:16:05;;;;;;;;;;;;;;;;;;5111482;28;19923;-70
2024/01/20 01:18:30;;;;;;;;;;;;;;;;;;5109915;28;20407;-70
2024/01/20 01:20:56;;;;;;;;;;;;;;;;;;5106988;28;19931;-71
2024/01/20 01:23:22;;;;;;;;;;;;;;;;;;5109363;28;19965;-70
2024/01/20 01:25:48;;;;;;;;;;;;;;;;;;5093721;28;19920;-70
2024/01/20 01:28:14;;;;;;;;;;;;;;;;;;5117923;28;19924;-68
2024/01/20 01:30:40;;;;;;;;;;;;;;;;;;5109162;28;20680;-69
2024/01/20 01:33:06;;;;;;;;;;;;;;;;;;5099729;28;20006;-70
2024/01/20 01:35:32;;;;;;;;;;;;;;;;;;5115209;28;19923;-69
2024/01/20 01:37:58;;;;;;;;;;;;;;;;;;5114805;28;19973;-69
2024/01/20 01:40:24;;;;;;;;;;;;;;;;;;5101398;28;20399;-69
2024/01/20 01:42:50;;;;;;;;;;;;;;;;;;5073840;28;19998;-70
2024/01/20 01:45:16;;;;;;;;;;;;;;;;;;5090077;28;20036;-70
2024/01/20 01:47:42;;;;;;;;;;;;;;;;;;5108228;28;20375;-68
2024/01/20 01:50:08;;;;;;;;;;;;;;;;;;5107148;28;20254;-69
2024/01/20 01:52:33;;;;;;;;;;;;;;;;;;5089656;28;19926;-70
2024/01/20 01:54:59;;;;;;;;;;;;;;;;;;5100362;28;19931;-70
2024/01/20 01:57:25;;;;;;;;;;;;;;;;;;5104528;28;19943;-70
2024/01/20 01:59:51;;;;;;;;;;;;;;;;;;5102164;28;19966;-70
2024/01/20 02:02:17;;;;;;;;;;;;;;;;;;5092623;28;19971;-70
2024/01/20 02:04:43;;;;;;;;;;;;;;;;;;5104333;28;19955;-70
2024/01/20 02:07:09;;;;;;;;;;;;;;;;;;5108840;28;19999;-70
2024/01/20 02:09:35;;;;;;;;;;;;;;;;;;5105320;28;19934;-69
2024/01/20 02:12:01;;;;;;;;;;;;;;;;;;5104306;28;19924;-69
2024/01/20 02:14:27;;;;;;;;;;;;;;;;;;5086358;28;19924;-69
2024/01/20 02:16:52;;;;;;;;;;;;;;;;;;5090941;28;19927;-69
2024/01/20 02:19:18;;;;;;;;;;;;;;;;;;5109835;28;19924;-69
2024/01/20 02:21:44;;;;;;;;;;;;;;;;;;5110144;28;20265;-69
2024/01/20 02:24:11;;;;;;;;;;;;;;;;;;5073056;28;19924;-69
2024/01/20 02:26:37;;;;;;;;;;;;;;;;;;5114290;22;19928;-69
2024/01/20 02:29:03;;;;;;;;;;;;;;;;;;5129448;27;19924;-69
2024/01/20 02:31:29;;;;;;;;;;;;;;;;;;5126898;27;19919;-69
2024/01/20 02:33:55;;;;;;;;;;;;;;;;;;5093695;27;19972;-69
2024/01/20 02:36:21;;;;;;;;;;;;;;;;;;5124845;27;19976;-69
2024/01/20 02:38:48;;;;;;;;;;;;;;;;;;5120447;27;20366;-69
2024/01/20 02:41:14;;;;;;;;;;;;;;;;;;5118946;27;20379;-69
2024/01/20 02:43:39;;;;;;;;;;;;;;;;;;5123455;27;19990;-70
2024/01/20 02:46:05;;;;;;;;;;;;;;;;;;5122528;27;19920;-70
2024/01/20 02:48:31;;;;;;;;;;;;;;;;;;5120152;27;19923;-69
2024/01/20 02:50:57;;;;;;;;;;;;;;;;;;5106228;27;19924;-70
2024/01/20 02:53:25;;;;;;;;;;;;;;;;;;5104186;27;19924;-70
2024/01/20 02:55:51;;;;;;;;;;;;;;;;;;5122962;27;20006;-70
2024/01/20 02:58:17;;;;;;;;;;;;;;;;;;5103307;27;20317;-70
2024/01/20 03:00:44;;;;;;;;;;;;;;;;;;5125301;27;19926;-69
2024/01/20 03:03:10;;;;;;;;;;;;;;;;;;5124784;27;19920;-69
2024/01/20 03:05:36;;;;;;;;;;;;;;;;;;5104785;28;20487;-69
2024/01/20 03:08:02;;;;;;;;;;;;;;;;;;5125176;27;20272;-69
2024/01/20 03:10:28;;;;;;;;;;;;;;;;;;5120563;27;19924;-70
2024/01/20 03:12:54;;;;;;;;;;;;;;;;;;5119215;27;20273;-70
2024/01/20 03:15:20;;;;;;;;;;;;;;;;;;5125855;27;19919;-70
2024/01/20 03:17:45;;;;;;;;;;;;;;;;;;5135341;27;19923;-70
2024/01/20 03:20:11;;;;;;;;;;;;;;;;;;5135315;27;19979;-70
2024/01/20 03:22:37;;;;;;;;;;;;;;;;;;5132880;27;20010;-70
2024/01/20 03:25:03;;;;;;;;;;;;;;;;;;5135723;27;19926;-70
2024/01/20 03:27:29;;;;;;;;;;;;;;;;;;5131272;27;19923;-70
2024/01/20 03:29:55;;;;;;;;;;;;;;;;;;5133301;27;20026;-70
2024/01/20 03:32:21;;;;;;;;;;;;;;;;;;5128212;27;20014;-70
2024/01/20 03:34:47;;;;;;;;;;;;;;;;;;5108548;27;19919;-70
2024/01/20 03:37:13;;;;;;;;;;;;;;;;;;5133679;27;19919;-70
2024/01/20 03:39:39;;;;;;;;;;;;;;;;;;5128294;27;19941;-70
2024/01/20 03:42:05;;;;;;;;;;;;;;;;;;5130189;27;19989;-68
2024/01/20 03:44:31;;;;;;;;;;;;;;;;;;5116063;27;19920;-70
2024/01/20 03:46:57;;;;;;;;;;;;;;;;;;5111285;27;19924;-69
2024/01/20 03:49:23;;;;;;;;;;;;;;;;;;5133129;27;19924;-69
2024/01/20 03:51:49;;;;;;;;;;;;;;;;;;5133928;27;19969;-70
2024/01/20 03:54:14;;;;;;;;;;;;;;;;;;5137222;27;20018;-69
2024/01/20 03:56:40;;;;;;;;;;;;;;;;;;5112586;27;19923;-69
2024/01/20 03:59:06;;;;;;;;;;;;;;;;;;5129223;27;19963;-69
2024/01/20 04:01:32;;;;;;;;;;;;;;;;;;5106198;27;19923;-69
2024/01/20 04:03:58;;;;;;;;;;;;;;;;;;5131785;27;19927;-69
2024/01/20 04:06:24;;;;;;;;;;;;;;;;;;5130479;27;19930;-69
2024/01/20 04:08:50;;;;;;;;;;;;;;;;;;5110849;27;20365;-69
2024/01/20 04:11:16;;;;;;;;;;;;;;;;;;5098943;27;19969;-69
2024/01/20 04:13:42;;;;;;;;;;;;;;;;;;5135094;27;19919;-70
2024/01/20 04:16:08;;;;;;;;;;;;;;;;;;5117329;27;19972;-70
2024/01/20 04:18:33;;;;;;;;;;;;;;;;;;5133785;27;19927;-70
2024/01/20 04:20:59;;;;;;;;;;;;;;;;;;5111783;27;20357;-70
2024/01/20 04:23:25;;;;;;;;;;;;;;;;;;5133189;27;19920;-70
2024/01/20 04:25:51;;;;;;;;;;;;;;;;;;5130297;27;19930;-69
2024/01/20 04:28:17;;;;;;;;;;;;;;;;;;5131523;27;20360;-70
2024/01/20 04:30:43;;;;;;;;;;;;;;;;;;5127701;27;19962;-70
2024/01/20 04:33:09;;;;;;;;;;;;;;;;;;5127250;27;19934;-70
2024/01/20 04:35:35;;;;;;;;;;;;;;;;;;5118519;27;19923;-70
2024/01/20 04:38:01;;;;;;;;;;;;;;;;;;5122707;27;20276;-70
2024/01/20 04:40:27;;;;;;;;;;;;;;;;;;5112135;27;20288;-70
2024/01/20 04:42:53;;;;;;;;;;;;;;;;;;5132378;27;19923;-70
2024/01/20 04:45:19;;;;;;;;;;;;;;;;;;5126375;27;19924;-70
2024/01/20 04:47:45;;;;;;;;;;;;;;;;;;5112285;27;20049;-70
2024/01/20 04:50:14;;;;;;;;;;;;;;;;;;5128255;27;20216;-69
2024/01/20 04:52:40;;;;;;;;;;;;;;;;;;5139355;27;19927;-70
2024/01/20 04:55:06;;;;;;;;;;;;;;;;;;5140500;27;20441;-70
2024/01/20 04:57:32;;;;;;;;;;;;;;;;;;5122751;27;19920;-70
2024/01/20 04:59:58;;;;;;;;;;;;;;;;;;5134912;27;19946;-69
2024/01/20 05:02:24;;;;;;;;;;;;;;;;;;5135057;27;19933;-69
2024/01/20 05:04:50;;;;;;;;;;;;;;;;;;5125706;27;20348;-69
2024/01/20 05:07:16;;;;;;;;;;;;;;;;;;5122682;27;19928;-69
2024/01/20 05:09:42;;;;;;;;;;;;;;;;;;5121581;27;19930;-69
2024/01/20 05:12:07;;;;;;;;;;;;;;;;;;5124917;27;19927;-69
2024/01/20 05:14:33;;;;;;;;;;;;;;;;;;5128391;27;19927;-69
2024/01/20 05:16:59;;;;;;;;;;;;;;;;;;5110311;27;20324;-69
2024/01/20 05:19:28;;;;;;;;;;;;;;;;;;5125684;27;19919;-69
2024/01/20 05:21:54;;;;;;;;;;;;;;;;;;5125736;27;19935;-69
2024/01/20 05:24:20;;;;;;;;;;;;;;;;;;5128916;27;19920;-70
2024/01/20 05:26:46;;;;;;;;;;;;;;;;;;5128375;27;19980;-70
2024/01/20 05:29:12;;;;;;;;;;;;;;;;;;5124267;27;20326;-70
2024/01/20 05:31:38;;;;;;;;;;;;;;;;;;5128885;27;19935;-70
2024/01/20 05:34:04;;;;;;;;;;;;;;;;;;5131138;27;20361;-70
2024/01/20 05:36:30;;;;;;;;;;;;;;;;;;5129411;27;19923;-70
2024/01/20 05:38:56;;;;;;;;;;;;;;;;;;5121133;27;20299;-71
2024/01/20 05:41:22;;;;;;;;;;;;;;;;;;5113515;27;19927;-70
2024/01/20 05:43:48;;;;;;;;;;;;;;;;;;5112648;27;19920;-70
2024/01/20 05:46:14;;;;;;;;;;;;;;;;;;5126235;27;19926;-70
2024/01/20 05:48:40;;;;;;;;;;;;;;;;;;5109862;27;19928;-70
2024/01/20 05:51:06;;;;;;;;;;;;;;;;;;5106380;27;20845;-70
2024/01/20 05:53:32;;;;;;;;;;;;;;;;;;5115159;27;20406;-70
2024/01/20 05:55:57;;;;;;;;;;;;;;;;;;5127559;27;19919;-69
2024/01/20 05:58:23;;;;;;;;;;;;;;;;;;5123354;27;19920;-70
2024/01/20 06:00:49;;;;;;;;;;;;;;;;;;5117440;27;19991;-70
2024/01/20 06:03:15;;;;;;;;;;;;;;;;;;5125280;27;19962;-70
2024/01/20 06:05:41;;;;;;;;;;;;;;;;;;5126224;27;19930;-70
2024/01/20 06:08:07;;;;;;;;;;;;;;;;;;5129144;27;20570;-70
2024/01/20 06:10:33;;;;;;;;;;;;;;;;;;5104267;28;19923;-70
2024/01/20 06:12:59;;;;;;;;;;;;;;;;;;5122032;27;19963;-70
2024/01/20 06:15:25;;;;;;;;;;;;;;;;;;5123934;27;19977;-70
2024/01/20 06:17:51;;;;;;;;;;;;;;;;;;5122462;27;20418;-70
2024/01/20 06:20:17;;;;;;;;;;;;;;;;;;5126235;27;20014;-70
2024/01/20 06:22:43;;;;;;;;;;;;;;;;;;5114242;27;19965;-70
2024/01/20 06:25:09;;;;;;;;;;;;;;;;;;5126967;27;19985;-70
2024/01/20 06:27:35;;;;;;;;;;;;;;;;;;5108906;27;19927;-70
2024/01/20 06:30:01;;;;;;;;;;;;;;;;;;5126527;27;19974;-70
2024/01/20 06:32:27;;;;;;;;;;;;;;;;;;5121724;27;19935;-70
2024/01/20 06:34:53;;;;;;;;;;;;;;;;;;5102237;27;19927;-70
2024/01/20 06:37:19;;;;;;;;;;;;;;;;;;5123776;27;19920;-69
2024/01/20 06:39:44;;;;;;;;;;;;;;;;;;5129907;27;19920;-70
2024/01/20 06:42:11;;;;;;;;;;;;;;;;;;5129743;27;19976;-70
2024/01/20 06:44:37;;;;;;;;;;;;;;;;;;5125448;27;19924;-70
2024/01/20 06:47:03;;;;;;;;;;;;;;;;;;5124670;27;19927;-70
2024/01/20 06:49:29;;;;;;;;;;;;;;;;;;5118909;27;20281;-70
2024/01/20 06:51:55;;;;;;;;;;;;;;;;;;5124785;27;19943;-70
2024/01/20 06:54:21;;;;;;;;;;;;;;;;;;5106755;27;19924;-70
2024/01/20 06:56:47;;;;;;;;;;;;;;;;;;5105424;27;19920;-70
2024/01/20 06:59:13;;;;;;;;;;;;;;;;;;5109551;27;20011;-70
2024/01/20 07:01:38;;;;;;;;;;;;;;;;;;5121829;27;20288;-70
2024/01/20 07:04:04;;;;;;;;;;;;;;;;;;5121973;27;19930;-71
2024/01/20 07:06:30;;;;;;;;;;;;;;;;;;5103286;28;19928;-70
2024/01/20 07:08:56;;;;;;;;;;;;;;;;;;5127335;27;19959;-70
2024/01/20 07:11:22;;;;;;;;;;;;;;;;;;5118190;27;20681;-70
2024/01/20 07:13:48;;;;;;;;;;;;;;;;;;5108685;28;20387;-70
2024/01/20 07:16:14;;;;;;;;;;;;;;;;;;5122768;28;19954;-70
2024/01/20 07:18:40;;;;;;;;;;;;;;;;;;5122411;27;19920;-70
2024/01/20 07:21:06;;;;;;;;;;;;;;;;;;5120977;27;19962;-70
2024/01/20 07:23:32;;;;;;;;;;;;;;;;;;5120885;28;20040;-70
2024/01/20 07:26:01;;;;;;;;;;;;;;;;;;5124994;28;20330;-70
2024/01/20 07:28:27;;;;;;;;;;;;;;;;;;5106287;28;20018;-70
2024/01/20 07:30:52;;;;;;;;;;;;;;;;;;5106921;28;20037;-70
2024/01/20 07:33:18;;;;;;;;;;;;;;;;;;5125330;28;19996;-70
2024/01/20 07:35:44;;;;;;;;;;;;;;;;;;5124494;28;19927;-70
2024/01/20 07:38:11;;;;;;;;;;;;;;;;;;5123302;27;19978;-71
2024/01/20 07:40:37;;;;;;;;;;;;;;;;;;5111898;28;20406;-70
2024/01/20 07:43:03;;;;;;;;;;;;;;;;;;5099202;28;19926;-70
2024/01/20 07:45:30;;;;;;;;;;;;;;;;;;5109141;28;19924;-70
2024/01/20 07:47:56;;;;;;;;;;;;;;;;;;5123597;28;19927;-70
2024/01/20 07:50:22;;;;;;;;;;;;;;;;;;5103684;28;19920;-69
2024/01/20 07:52:48;;;;;;;;;;;;;;;;;;5102732;28;19976;-70
2024/01/20 07:55:14;;;;;;;;;;;;;;;;;;5114792;28;19923;-70
2024/01/20 07:57:40;;;;;;;;;;;;;;;;;;5119482;27;20377;-69
2024/01/20 08:00:06;;;;;;;;;;;;;;;;;;5118875;27;19923;-71
2024/01/20 08:02:32;;;;;;;;;;;;;;;;;;5121325;27;19949;-70
2024/01/20 08:04:59;;;;;;;;;;;;;;;;;;5125364;27;19990;-70
2024/01/20 08:07:25;;;;;;;;;;;;;;;;;;5097791;27;19931;-71
2024/01/20 08:09:51;;;;;;;;;;;;;;;;;;5129130;27;19931;-70
2024/01/20 08:12:17;;;;;;;;;;;;;;;;;;5127044;27;19946;-68
2024/01/20 08:14:43;;;;;;;;;;;;;;;;;;5134498;27;20375;-70
2024/01/20 08:17:09;;;;;;;;;;;;;;;;;;5129241;27;19983;-70
2024/01/20 08:19:35;;;;;;;;;;;;;;;;;;5123277;27;19923;-71
2024/01/20 08:22:01;;;;;;;;;;;;;;;;;;5112928;27;19926;-69
2024/01/20 08:24:27;;;;;;;;;;;;;;;;;;5130084;27;19959;-69
2024/01/20 08:26:53;;;;;;;;;;;;;;;;;;5108056;27;19975;-70
2024/01/20 08:29:19;;;;;;;;;;;;;;;;;;5102885;27;20041;-69
2024/01/20 08:31:45;;;;;;;;;;;;;;;;;;5123860;27;19926;-69
2024/01/20 08:34:11;;;;;;;;;;;;;;;;;;5123972;27;20019;-70
2024/01/20 08:36:37;;;;;;;;;;;;;;;;;;5123390;27;20006;-71
2024/01/20 08:39:03;;;;;;;;;;;;;;;;;;5122641;27;20023;-70
2024/01/20 08:41:29;;;;;;;;;;;;;;;;;;5125918;27;20671;-70
2024/01/20 08:43:55;;;;;;;;;;;;;;;;;;5124071;27;19962;-70
2024/01/20 08:46:21;;;;;;;;;;;;;;;;;;5131165;27;19967;-70
2024/01/20 08:48:47;;;;;;;;;;;;;;;;;;5127328;27;19973;-70
2024/01/20 08:51:13;;;;;;;;;;;;;;;;;;5113050;27;19927;-70
2024/01/20 08:53:39;;;;;;;;;;;;;;;;;;5110455;27;19927;-70
2024/01/20 08:56:05;;;;;;;;;;;;;;;;;;5129237;27;19925;-70
2024/01/20 08:58:31;;;;;;;;;;;;;;;;;;5129950;27;19919;-69
2024/01/20 09:00:57;;;;;;;;;;;;;;;;;;5086052;27;19943;-70
2024/01/20 09:03:23;;;;;;;;;;;;;;;;;;5130401;27;19923;-70
2024/01/20 09:05:49;;;;;;;;;;;;;;;;;;5130904;27;19926;-71
2024/01/20 09:08:15;;;;;;;;;;;;;;;;;;5129189;27;20345;-70
2024/01/20 09:10:41;;;;;;;;;;;;;;;;;;5119856;27;19923;-69
2024/01/20 09:13:07;;;;;;;;;;;;;;;;;;5125741;27;19923;-70
2024/01/20 09:15:33;;;;;;;;;;;;;;;;;;5102797;27;19920;-70
2024/01/20 09:17:59;;;;;;;;;;;;;;;;;;5127364;27;20461;-70
2024/01/20 09:20:25;;;;;;;;;;;;;;;;;;5130924;27;19977;-70
2024/01/20 09:22:51;;;;;;;;;;;;;;;;;;5130188;27;19923;-69
2024/01/20 09:25:17;;;;;;;;;;;;;;;;;;5096012;27;20009;-70
2024/01/20 09:27:42;;;;;;;;;;;;;;;;;;5104434;27;19928;-69
2024/01/20 09:30:08;;;;;;;;;;;;;;;;;;5125184;27;19927;-69
2024/01/20 09:32:35;;;;;;;;;;;;;;;;;;5127466;27;19927;-70
2024/01/20 09:35:01;;;;;;;;;;;;;;;;;;5104047;27;20779;-70
2024/01/20 09:37:28;;;;;;;;;;;;;;;;;;5113851;27;19935;-69
2024/01/20 09:39:54;;;;;;;;;;;;;;;;;;5105260;27;19972;-69
2024/01/20 09:42:20;;;;;;;;;;;;;;;;;;5127577;27;19927;-69
2024/01/20 09:44:46;;;;;;;;;;;;;;;;;;5129977;27;20338;-69
2024/01/20 09:47:12;;;;;;;;;;;;;;;;;;5126073;27;20724;-70
2024/01/20 09:49:38;;;;;;;;;;;;;;;;;;5123432;27;20014;-70
2024/01/20 09:52:04;;;;;;;;;;;;;;;;;;5126278;27;20376;-70
2024/01/20 09:54:30;;;;;;;;;;;;;;;;;;5127649;27;19927;-69
2024/01/20 09:56:56;;;;;;;;;;;;;;;;;;5109501;27;20032;-69
2024/01/20 09:59:22;;;;;;;;;;;;;;;;;;5125950;27;19949;-69
2024/01/20 10:01:47;;;;;;;;;;;;;;;;;;5124423;27;20403;-69
2024/01/20 10:04:13;;;;;;;;;;;;;;;;;;5128298;27;20276;-69
2024/01/20 10:06:39;;;;;;;;;;;;;;;;;;5131061;27;19984;-70
2024/01/20 10:09:06;;;;;;;;;;;;;;;;;;5126484;27;19985;-69
2024/01/20 10:11:31;;;;;;;;;;;;;;;;;;5105073;27;19927;-69
2024/01/20 10:13:57;;;;;;;;;;;;;;;;;;5124901;27;20088;-69
2024/01/20 10:16:23;;;;;;;;;;;;;;;;;;5125415;27;20360;-69
2024/01/20 10:18:49;;;;;;;;;;;;;;;;;;5125183;27;19930;-69
2024/01/20 10:21:15;;;;;;;;;;;;;;;;;;5108833;27;19928;-69
2024/01/20 10:23:41;;;;;;;;;;;;;;;;;;5115204;27;19928;-69
2024/01/20 10:26:09;;;;;;;;;;;;;;;;;;5108830;27;19936;-69
2024/01/20 10:28:35;;;;;;;;;;;;;;;;;;5111468;27;19924;-69
2024/01/20 10:31:01;;;;;;;;;;;;;;;;;;5107888;27;20468;-69
2024/01/20 10:33:27;;;;;;;;;;;;;;;;;;5121920;27;19935;-69
2024/01/20 10:35:53;;;;;;;;;;;;;;;;;;5102590;27;19920;-69
2024/01/20 10:38:20;;;;;;;;;;;;;;;;;;5107155;27;19923;-69
2024/01/20 10:40:49;;;;;;;;;;;;;;;;;;5126443;27;19934;-69
2024/01/20 10:43:15;;;;;;;;;;;;;;;;;;5112408;27;19920;-71
2024/01/20 10:45:41;;;;;;;;;;;;;;;;;;5111810;27;20034;-70
2024/01/20 10:48:07;;;;;;;;;;;;;;;;;;5129662;27;20372;-69
2024/01/20 10:50:33;;;;;;;;;;;;;;;;;;5102985;27;19926;-70
2024/01/20 10:52:59;;;;;;;;;;;;;;;;;;5127307;27;20018;-69
2024/01/20 10:55:25;;;;;;;;;;;;;;;;;;5100166;27;20014;-70
2024/01/20 10:57:50;;;;;;;;;;;;;;;;;;5087012;27;20392;-70
2024/01/20 11:00:16;;;;;;;;;;;;;;;;;;5129560;27;19975;-70
2024/01/20 11:02:42;;;;;;;;;;;;;;;;;;5124475;27;19919;-69
2024/01/20 11:05:08;;;;;;;;;;;;;;;;;;5125908;27;19930;-70
2024/01/20 11:07:34;;;;;;;;;;;;;;;;;;5111915;28;19926;-70
2024/01/20 11:10:00;;;;;;;;;;;;;;;;;;5105894;27;19924;-69
2024/01/20 11:12:26;;;;;;;;;;;;;;;;;;5101299;28;19958;-69
2024/01/20 11:14:52;;;;;;;;;;;;;;;;;;5123996;28;20018;-70
2024/01/20 11:17:18;;;;;;;;;;;;;;;;;;5110958;28;20006;-69
2024/01/20 11:19:44;;;;;;;;;;;;;;;;;;5124976;28;19919;-69
2024/01/20 11:22:10;;;;;;;;;;;;;;;;;;5124991;28;19929;-70
2024/01/20 11:24:37;;;;;;;;;;;;;;;;;;5124597;27;20415;-69
2024/01/20 11:27:04;;;;;;;;;;;;;;;;;;5100109;28;20007;-69
2024/01/20 11:29:29;;;;;;;;;;;;;;;;;;5127891;27;19928;-69
2024/01/20 11:31:55;;;;;;;;;;;;;;;;;;5102121;28;20258;-67
2024/01/20 11:34:21;;;;;;;;;;;;;;;;;;5120275;27;20513;-68
2024/01/20 11:36:48;;;;;;;;;;;;;;;;;;5126980;27;19923;-69
2024/01/20 11:39:14;;;;;;;;;;;;;;;;;;5128507;27;19924;-69
2024/01/20 11:41:40;;;;;;;;;;;;;;;;;;5131725;27;19980;-68
2024/01/20 11:44:06;;;;;;;;;;;;;;;;;;5110355;27;19927;-68
2024/01/20 11:46:32;;;;;;;;;;;;;;;;;;5106815;28;19926;-68
2024/01/20 11:48:58;;;;;;;;;;;;;;;;;;5101689;28;19924;-68
2024/01/20 11:51:24;;;;;;;;;;;;;;;;;;5130814;27;19930;-69
2024/01/20 11:53:50;;;;;;;;;;;;;;;;;;5125265;27;19923;-69
2024/01/20 11:56:16;;;;;;;;;;;;;;;;;;5128438;27;20149;-68
2024/01/20 11:58:42;;;;;;;;;;;;;;;;;;5130980;27;19920;-68
2024/01/20 12:01:08;;;;;;;;;;;;;;;;;;5129693;27;19924;-69
2024/01/20 12:03:34;;;;;;;;;;;;;;;;;;5108117;28;19924;-69
2024/01/20 12:05:59;;;;;;;;;;;;;;;;;;5127001;27;19954;-69
2024/01/20 12:08:25;;;;;;;;;;;;;;;;;;5115991;27;19923;-69
2024/01/20 12:10:51;;;;;;;;;;;;;;;;;;5135118;27;19923;-69
2024/01/20 12:13:17;;;;;;;;;;;;;;;;;;5132781;27;19972;-69
2024/01/20 12:15:43;;;;;;;;;;;;;;;;;;5127056;27;19955;-68
2024/01/20 12:18:09;;;;;;;;;;;;;;;;;;5131222;27;19963;-69
2024/01/20 12:20:35;;;;;;;;;;;;;;;;;;5110190;27;20267;-68
2024/01/20 12:23:02;;;;;;;;;;;;;;;;;;5110414;27;19988;-68
2024/01/20 12:25:28;;;;;;;;;;;;;;;;;;5126874;27;20426;-68
2024/01/20 12:27:54;;;;;;;;;;;;;;;;;;5105891;27;19931;-69
2024/01/20 12:30:20;;;;;;;;;;;;;;;;;;5131283;27;20014;-70
2024/01/20 12:32:46;;;;;;;;;;;;;;;;;;5124228;27;20272;-69
2024/01/20 12:35:11;;;;;;;;;;;;;;;;;;5132674;27;19920;-69
2024/01/20 12:37:37;;;;;;;;;;;;;;;;;;5130169;27;19931;-69
2024/01/20 12:40:05;;;;;;;;;;;;;;;;;;5130403;27;19927;-69
2024/01/20 12:42:31;;;;;;;;;;;;;;;;;;5131719;27;19924;-69
2024/01/20 12:44:57;;;;;;;;;;;;;;;;;;5127351;27;19963;-69
2024/01/20 12:47:23;;;;;;;;;;;;;;;;;;5132130;27;20017;-69
2024/01/20 12:49:49;;;;;;;;;;;;;;;;;;5108163;27;20015;-69
2024/01/20 12:52:15;;;;;;;;;;;;;;;;;;5125032;27;20015;-70
2024/01/20 12:54:41;;;;;;;;;;;;;;;;;;5121003;27;20472;-70
2024/01/20 12:57:07;;;;;;;;;;;;;;;;;;5130747;27;19976;-70
2024/01/20 12:59:33;;;;;;;;;;;;;;;;;;5121478;27;19923;-70
2024/01/20 13:01:59;;;;;;;;;;;;;;;;;;5130057;27;19920;-69
2024/01/20 13:04:25;;;;;;;;;;;;;;;;;;5126272;27;19920;-70
2024/01/20 13:06:51;;;;;;;;;;;;;;;;;;5103470;27;19945;-70
2024/01/20 13:09:17;;;;;;;;;;;;;;;;;;5109863;27;20380;-69
2024/01/20 13:11:43;;;;;;;;;;;;;;;;;;5129044;27;19927;-68
2024/01/20 13:14:09;;;;;;;;;;;;;;;;;;5124802;27;20010;-68
2024/01/20 13:16:35;;;;;;;;;;;;;;;;;;5104451;28;19923;-68
2024/01/20 13:19:01;;;;;;;;;;;;;;;;;;5123795;27;20102;-69
2024/01/20 13:21:27;;;;;;;;;;;;;;;;;;5122116;27;19924;-70
2024/01/20 13:23:53;;;;;;;;;;;;;;;;;;5121713;27;19993;-69
2024/01/20 13:26:19;;;;;;;;;;;;;;;;;;5110452;27;19924;-69
2024/01/20 13:28:44;;;;;;;;;;;;;;;;;;5123049;27;19928;-69
2024/01/20 13:31:10;;;;;;;;;;;;;;;;;;5125141;27;19919;-69
2024/01/20 13:33:36;;;;;;;;;;;;;;;;;;5105240;27;19927;-69
2024/01/20 13:36:02;;;;;;;;;;;;;;;;;;5119482;27;19923;-70
2024/01/20 13:38:28;;;;;;;;;;;;;;;;;;5102278;27;19927;-70
2024/01/20 13:40:54;;;;;;;;;;;;;;;;;;5106587;27;19933;-68
2024/01/20 13:43:20;;;;;;;;;;;;;;;;;;5124483;27;19924;-69
2024/01/20 13:45:46;;;;;;;;;;;;;;;;;;5126633;27;19975;-69
2024/01/20 13:48:12;;;;;;;;;;;;;;;;;;5122623;27;19989;-69
2024/01/20 13:50:38;;;;;;;;;;;;;;;;;;5090820;28;19946;-70
2024/01/20 13:53:04;;;;;;;;;;;;;;;;;;5119812;27;20048;-69
2024/01/20 13:55:30;;;;;;;;;;;;;;;;;;5131302;27;20372;-69
2024/01/20 13:57:56;;;;;;;;;;;;;;;;;;5124796;27;19924;-69
2024/01/20 14:00:22;;;;;;;;;;;;;;;;;;5089205;27;19976;-69
2024/01/20 14:02:48;;;;;;;;;;;;;;;;;;5118328;27;19923;-69
2024/01/20 14:05:14;;;;;;;;;;;;;;;;;;5112038;27;19924;-69
2024/01/20 14:07:40;;;;;;;;;;;;;;;;;;5128442;27;19960;-69
2024/01/20 14:10:06;;;;;;;;;;;;;;;;;;5123419;27;20328;-69
2024/01/20 14:12:32;;;;;;;;;;;;;;;;;;5101043;27;19923;-70
2024/01/20 14:14:58;;;;;;;;;;;;;;;;;;5120496;27;20002;-69
2024/01/20 14:17:24;;;;;;;;;;;;;;;;;;5107399;27;19962;-69
2024/01/20 14:19:50;;;;;;;;;;;;;;;;;;5123700;27;19923;-69
2024/01/20 14:22:20;;;;;;;;;;;;;;;;;;5126821;27;20003;-70
2024/01/20 14:24:46;;;;;;;;;;;;;;;;;;5123680;27;19923;-69
2024/01/20 14:27:12;;;;;;;;;;;;;;;;;;5095967;27;20350;-70
2024/01/20 14:29:38;;;;;;;;;;;;;;;;;;5121461;27;20277;-70
2024/01/20 14:32:04;;;;;;;;;;;;;;;;;;5090488;27;19919;-69
2024/01/20 14:34:30;;;;;;;;;;;;;;;;;;5123078;27;20038;-69
2024/01/20 14:36:56;;;;;;;;;;;;;;;;;;5121744;27;20635;-69
2024/01/20 14:39:22;;;;;;;;;;;;;;;;;;5124381;27;20273;-70
2024/01/20 14:41:48;;;;;;;;;;;;;;;;;;5144887;22;19931;-65
2024/01/20 14:44:14;;;;;;;;;;;;;;;;;;5093041;28;19928;-65
2024/01/20 14:46:40;;;;;;;;;;;;;;;;;;5110820;27;19974;-66
2024/01/20 14:49:06;;;;;;;;;;;;;;;;;;5116986;27;19958;-65
2024/01/20 14:51:32;;;;;;;;;;;;;;;;;;5112561;27;20451;-66
2024/01/20 14:53:58;;;;;;;;;;;;;;;;;;5106424;28;19924;-66
2024/01/20 14:56:28;;;;;;;;;;;;;;;;;;5096091;28;19920;-66
2024/01/20 14:58:54;;;;;;;;;;;;;;;;;;5108264;27;20288;-66
2024/01/20 15:01:20;;;;;;;;;;;;;;;;;;5104843;28;19920;-66
2024/01/20 15:03:46;;;;;;;;;;;;;;;;;;5095140;28;19920;-66
2024/01/20 15:06:12;;;;;;;;;;;;;;;;;;5101775;28;19920;-65
2024/01/20 15:08:38;;;;;;;;;;;;;;;;;;5088453;28;19976;-65
2024/01/20 15:11:04;;;;;;;;;;;;;;;;;;5108880;28;19955;-65
2024/01/20 15:13:30;;;;;;;;;;;;;;;;;;5108395;28;19928;-65
2024/01/20 15:15:56;;;;;;;;;;;;;;;;;;5088994;28;19924;-65
2024/01/20 15:18:22;;;;;;;;;;;;;;;;;;5085895;28;19920;-65
2024/01/20 15:20:48;;;;;;;;;;;;;;;;;;5075275;28;19985;-65
2024/01/20 15:23:14;;;;;;;;;;;;;;;;;;5106404;28;19923;-65
2024/01/20 15:25:40;;;;;;;;;;;;;;;;;;5067021;28;19935;-65
2024/01/20 15:28:06;;;;;;;;;;;;;;;;;;5101861;28;20445;-66
2024/01/20 15:30:32;;;;;;;;;;;;;;;;;;5084945;28;19928;-65
2024/01/20 15:32:58;;;;;;;;;;;;;;;;;;5103158;28;19924;-65
2024/01/20 15:35:24;;;;;;;;;;;;;;;;;;5102160;28;19938;-65
2024/01/20 15:37:49;;;;;;;;;;;;;;;;;;5103878;28;19923;-65
2024/01/20 15:40:15;;;;;;;;;;;;;;;;;;5095104;28;20373;-65
2024/01/20 15:42:41;;;;;;;;;;;;;;;;;;5103656;28;19924;-65
2024/01/20 15:45:07;;;;;;;;;;;;;;;;;;5079106;28;19932;-66
2024/01/20 15:47:33;;;;;;;;;;;;;;;;;;5085980;28;19930;-65
2024/01/20 15:49:59;;;;;;;;;;;;;;;;;;5102711;28;19920;-65
2024/01/20 15:52:27;;;;;;;;;;;;;;;;;;5104603;28;19928;-65
2024/01/20 15:54:53;;;;;;;;;;;;;;;;;;5100245;28;19923;-65
2024/01/20 15:57:19;;;;;;;;;;;;;;;;;;5087726;28;20558;-66
2024/01/20 15:59:45;;;;;;;;;;;;;;;;;;5101086;28;19924;-66
2024/01/20 16:02:11;;;;;;;;;;;;;;;;;;5086199;28;19938;-66
2024/01/20 16:04:37;;;;;;;;;;;;;;;;;;5105485;28;19927;-66
2024/01/20 16:07:03;;;;;;;;;;;;;;;;;;5107575;28;19926;-66
2024/01/20 16:09:29;;;;;;;;;;;;;;;;;;5107604;28;20058;-66
2024/01/20 16:11:55;;;;;;;;;;;;;;;;;;5102839;28;19935;-66
2024/01/20 16:14:21;;;;;;;;;;;;;;;;;;5110321;28;19927;-66
2024/01/20 16:16:47;;;;;;;;;;;;;;;;;;5089078;28;19969;-66
2024/01/20 16:19:13;;;;;;;;;;;;;;;;;;5102055;28;19920;-64
2024/01/20 16:21:39;;;;;;;;;;;;;;;;;;5110126;28;19924;-66
2024/01/20 16:24:05;;;;;;;;;;;;;;;;;;5112367;27;19973;-66
2024/01/20 16:26:31;;;;;;;;;;;;;;;;;;5096876;27;19927;-65
2024/01/20 16:28:57;;;;;;;;;;;;;;;;;;5113817;27;19955;-66
2024/01/20 16:31:23;;;;;;;;;;;;;;;;;;5106464;27;19932;-66
2024/01/20 16:33:49;;;;;;;;;;;;;;;;;;5108429;27;19963;-66
2024/01/20 16:36:21;;;;;;;;;;;;;;;;;;5105056;28;19977;-66